sensor_id;sensor_type;location;lat;lon;timestamp;P1;durP1;ratioP1;P2;durP2;ratioP2
3916;SDS011;1973;50.518;7.318;2022-09-09T00:00:55;3.10;;;1.07;;
3916;SDS011;1973;50.518;7.318;2022-09-09T00:03:26;4.40;;;1.20;;
3916;SDS011;1973;50.518;7.318;2022-09-09T00:06:17;3.20;;;1.40;;
3916;SDS011;1973;50.518;7.318;2022-09-09T00:08:58;4.73;;;1.50;;
3916;SDS011;1973;50.518;7.318;2022-09-09T00:11:28;5.27;;;1.33;;
3916;SDS011;1973;50.518;7.318;2022-09-09T00:14:03;3.03;;;1.40;;
3916;SDS011;1973;50.518;7.318;2022-09-09T00:16:46;2.90;;;1.60;;
3916;SDS011;1973;50.518;7.318;2022-09-09T00:24:24;4.10;;;1.73;;
3916;SDS011;1973;50.518;7.318;2022-09-09T00:27:40;6.07;;;1.47;;
3916;SDS011;1973;50.518;7.318;2022-09-09T00:30:00;7.13;;;1.77;;
3916;SDS011;1973;50.518;7.318;2022-09-09T00:32:49;6.63;;;1.57;;
3916;SDS011;1973;50.518;7.318;2022-09-09T00:38:11;2.47;;;1.50;;
3916;SDS011;1973;50.518;7.318;2022-09-09T00:40:43;4.33;;;2.00;;
3916;SDS011;1973;50.518;7.318;2022-09-09T00:48:32;5.87;;;1.80;;
3916;SDS011;1973;50.518;7.318;2022-09-09T00:51:15;3.93;;;1.80;;
3916;SDS011;1973;50.518;7.318;2022-09-09T00:53:58;8.13;;;1.53;;
3916;SDS011;1973;50.518;7.318;2022-09-09T00:56:30;3.33;;;1.30;;
3916;SDS011;1973;50.518;7.318;2022-09-09T01:01:53;2.03;;;1.30;;
3916;SDS011;1973;50.518;7.318;2022-09-09T01:04:24;2.10;;;1.10;;
3916;SDS011;1973;50.518;7.318;2022-09-09T01:07:07;2.87;;;1.10;;
3916;SDS011;1973;50.518;7.318;2022-09-09T01:12:42;5.30;;;1.80;;
3916;SDS011;1973;50.518;7.318;2022-09-09T01:15:22;3.63;;;1.30;;
3916;SDS011;1973;50.518;7.318;2022-09-09T01:23:30;5.33;;;1.47;;
3916;SDS011;1973;50.518;7.318;2022-09-09T01:28:35;6.03;;;1.17;;
3916;SDS011;1973;50.518;7.318;2022-09-09T01:31:03;4.10;;;1.57;;
3916;SDS011;1973;50.518;7.318;2022-09-09T01:33:32;5.03;;;1.67;;
3916;SDS011;1973;50.518;7.318;2022-09-09T01:36:00;3.40;;;1.67;;
3916;SDS011;1973;50.518;7.318;2022-09-09T01:38:29;4.30;;;1.53;;
3916;SDS011;1973;50.518;7.318;2022-09-09T01:40:57;5.03;;;2.40;;
3916;SDS011;1973;50.518;7.318;2022-09-09T01:43:24;7.10;;;1.70;;
3916;SDS011;1973;50.518;7.318;2022-09-09T01:45:53;8.33;;;1.63;;
3916;SDS011;1973;50.518;7.318;2022-09-09T01:48:22;4.40;;;1.80;;
3916;SDS011;1973;50.518;7.318;2022-09-09T01:50:49;7.30;;;1.10;;
3916;SDS011;1973;50.518;7.318;2022-09-09T01:53:17;3.60;;;1.27;;
3916;SDS011;1973;50.518;7.318;2022-09-09T01:56:05;3.63;;;1.30;;
3916;SDS011;1973;50.518;7.318;2022-09-09T01:58:45;2.67;;;1.30;;
3916;SDS011;1973;50.518;7.318;2022-09-09T02:04:18;3.77;;;1.50;;
3916;SDS011;1973;50.518;7.318;2022-09-09T02:10:08;7.80;;;2.20;;
3916;SDS011;1973;50.518;7.318;2022-09-09T02:12:42;3.47;;;1.57;;
3916;SDS011;1973;50.518;7.318;2022-09-09T02:15:20;6.40;;;1.70;;
3916;SDS011;1973;50.518;7.318;2022-09-09T02:17:52;2.87;;;1.23;;
3916;SDS011;1973;50.518;7.318;2022-09-09T02:20:24;5.80;;;1.40;;
3916;SDS011;1973;50.518;7.318;2022-09-09T02:22:58;3.33;;;1.33;;
3916;SDS011;1973;50.518;7.318;2022-09-09T02:25:27;4.10;;;1.70;;
3916;SDS011;1973;50.518;7.318;2022-09-09T02:27:55;5.53;;;1.57;;
3916;SDS011;1973;50.518;7.318;2022-09-09T02:30:24;4.67;;;1.63;;
3916;SDS011;1973;50.518;7.318;2022-09-09T02:32:55;5.30;;;1.50;;
3916;SDS011;1973;50.518;7.318;2022-09-09T02:35:24;8.70;;;1.50;;
3916;SDS011;1973;50.518;7.318;2022-09-09T02:37:54;3.13;;;2.33;;
3916;SDS011;1973;50.518;7.318;2022-09-09T02:40:25;3.50;;;1.43;;
3916;SDS011;1973;50.518;7.318;2022-09-09T02:42:53;4.87;;;1.77;;
3916;SDS011;1973;50.518;7.318;2022-09-09T02:45:23;5.30;;;1.50;;
3916;SDS011;1973;50.518;7.318;2022-09-09T02:48:14;3.30;;;1.80;;
3916;SDS011;1973;50.518;7.318;2022-09-09T02:50:57;2.90;;;1.77;;
3916;SDS011;1973;50.518;7.318;2022-09-09T02:56:18;6.20;;;1.67;;
3916;SDS011;1973;50.518;7.318;2022-09-09T02:58:49;5.13;;;1.50;;
3916;SDS011;1973;50.518;7.318;2022-09-09T03:01:17;5.57;;;1.70;;
3916;SDS011;1973;50.518;7.318;2022-09-09T03:03:44;4.60;;;1.40;;
3916;SDS011;1973;50.518;7.318;2022-09-09T03:06:12;6.50;;;1.53;;
3916;SDS011;1973;50.518;7.318;2022-09-09T03:08:39;5.50;;;1.30;;
3916;SDS011;1973;50.518;7.318;2022-09-09T03:11:06;4.00;;;1.33;;
3916;SDS011;1973;50.518;7.318;2022-09-09T03:13:33;2.10;;;1.00;;
3916;SDS011;1973;50.518;7.318;2022-09-09T03:16:00;6.40;;;1.37;;
3916;SDS011;1973;50.518;7.318;2022-09-09T03:18:26;3.33;;;1.70;;
3916;SDS011;1973;50.518;7.318;2022-09-09T03:20:54;5.33;;;1.40;;
3916;SDS011;1973;50.518;7.318;2022-09-09T03:23:20;3.93;;;1.50;;
3916;SDS011;1973;50.518;7.318;2022-09-09T03:25:48;3.23;;;1.50;;
3916;SDS011;1973;50.518;7.318;2022-09-09T03:28:15;1.63;;;1.23;;
3916;SDS011;1973;50.518;7.318;2022-09-09T03:30:41;5.13;;;1.80;;
3916;SDS011;1973;50.518;7.318;2022-09-09T03:33:08;5.37;;;1.57;;
3916;SDS011;1973;50.518;7.318;2022-09-09T03:35:34;3.70;;;1.40;;
3916;SDS011;1973;50.518;7.318;2022-09-09T03:38:01;7.20;;;2.07;;
3916;SDS011;1973;50.518;7.318;2022-09-09T03:40:27;3.57;;;1.53;;
3916;SDS011;1973;50.518;7.318;2022-09-09T03:42:54;7.00;;;2.20;;
3916;SDS011;1973;50.518;7.318;2022-09-09T03:45:20;4.23;;;1.60;;
3916;SDS011;1973;50.518;7.318;2022-09-09T03:47:47;4.30;;;1.80;;
3916;SDS011;1973;50.518;7.318;2022-09-09T03:50:13;9.50;;;1.80;;
3916;SDS011;1973;50.518;7.318;2022-09-09T03:52:40;4.40;;;1.50;;
3916;SDS011;1973;50.518;7.318;2022-09-09T03:55:08;7.27;;;2.33;;
3916;SDS011;1973;50.518;7.318;2022-09-09T03:57:35;2.63;;;1.60;;
3916;SDS011;1973;50.518;7.318;2022-09-09T04:00:03;3.33;;;1.67;;
3916;SDS011;1973;50.518;7.318;2022-09-09T04:02:31;4.80;;;1.50;;
3916;SDS011;1973;50.518;7.318;2022-09-09T04:04:57;5.53;;;1.30;;
3916;SDS011;1973;50.518;7.318;2022-09-09T04:07:25;3.47;;;1.20;;
3916;SDS011;1973;50.518;7.318;2022-09-09T04:09:53;6.67;;;1.93;;
3916;SDS011;1973;50.518;7.318;2022-09-09T04:12:20;6.13;;;1.30;;
3916;SDS011;1973;50.518;7.318;2022-09-09T04:14:48;4.83;;;1.50;;
3916;SDS011;1973;50.518;7.318;2022-09-09T04:17:15;3.20;;;1.50;;
3916;SDS011;1973;50.518;7.318;2022-09-09T04:19:41;3.57;;;1.47;;
3916;SDS011;1973;50.518;7.318;2022-09-09T04:22:08;5.07;;;1.30;;
3916;SDS011;1973;50.518;7.318;2022-09-09T04:24:35;1.97;;;1.10;;
3916;SDS011;1973;50.518;7.318;2022-09-09T04:27:02;4.90;;;1.30;;
3916;SDS011;1973;50.518;7.318;2022-09-09T04:29:28;4.13;;;1.60;;
3916;SDS011;1973;50.518;7.318;2022-09-09T04:31:54;3.20;;;1.63;;
3916;SDS011;1973;50.518;7.318;2022-09-09T04:34:21;3.90;;;1.63;;
3916;SDS011;1973;50.518;7.318;2022-09-09T04:36:47;2.73;;;1.50;;
3916;SDS011;1973;50.518;7.318;2022-09-09T04:39:14;2.80;;;1.43;;
3916;SDS011;1973;50.518;7.318;2022-09-09T04:41:40;7.67;;;1.40;;
3916;SDS011;1973;50.518;7.318;2022-09-09T04:44:07;2.50;;;1.17;;
3916;SDS011;1973;50.518;7.318;2022-09-09T04:46:33;10.43;;;2.37;;
3916;SDS011;1973;50.518;7.318;2022-09-09T04:49:00;4.23;;;1.40;;
3916;SDS011;1973;50.518;7.318;2022-09-09T04:51:26;6.03;;;1.53;;
3916;SDS011;1973;50.518;7.318;2022-09-09T04:53:54;3.03;;;1.67;;
3916;SDS011;1973;50.518;7.318;2022-09-09T04:56:20;4.40;;;1.33;;
3916;SDS011;1973;50.518;7.318;2022-09-09T04:58:47;3.53;;;1.90;;
3916;SDS011;1973;50.518;7.318;2022-09-09T05:01:15;3.20;;;1.57;;
3916;SDS011;1973;50.518;7.318;2022-09-09T05:03:46;7.53;;;1.70;;
3916;SDS011;1973;50.518;7.318;2022-09-09T05:06:14;4.20;;;1.83;;
3916;SDS011;1973;50.518;7.318;2022-09-09T05:08:43;5.77;;;2.00;;
3916;SDS011;1973;50.518;7.318;2022-09-09T05:11:20;4.70;;;1.53;;
3916;SDS011;1973;50.518;7.318;2022-09-09T05:13:52;3.60;;;1.60;;
3916;SDS011;1973;50.518;7.318;2022-09-09T05:16:19;5.43;;;1.37;;
3916;SDS011;1973;50.518;7.318;2022-09-09T05:18:47;3.00;;;1.67;;
3916;SDS011;1973;50.518;7.318;2022-09-09T05:21:14;5.73;;;1.87;;
3916;SDS011;1973;50.518;7.318;2022-09-09T05:23:41;3.47;;;1.40;;
3916;SDS011;1973;50.518;7.318;2022-09-09T05:26:13;5.57;;;1.63;;
3916;SDS011;1973;50.518;7.318;2022-09-09T05:28:43;2.90;;;2.00;;
3916;SDS011;1973;50.518;7.318;2022-09-09T05:31:11;7.00;;;1.73;;
3916;SDS011;1973;50.518;7.318;2022-09-09T05:33:42;5.83;;;1.73;;
3916;SDS011;1973;50.518;7.318;2022-09-09T05:36:16;3.80;;;1.40;;
3916;SDS011;1973;50.518;7.318;2022-09-09T05:38:44;6.30;;;1.80;;
3916;SDS011;1973;50.518;7.318;2022-09-09T05:41:11;7.57;;;1.70;;
3916;SDS011;1973;50.518;7.318;2022-09-09T05:43:39;2.53;;;1.40;;
3916;SDS011;1973;50.518;7.318;2022-09-09T05:46:09;4.27;;;2.00;;
3916;SDS011;1973;50.518;7.318;2022-09-09T05:48:38;6.80;;;1.70;;
3916;SDS011;1973;50.518;7.318;2022-09-09T05:51:08;3.97;;;1.60;;
3916;SDS011;1973;50.518;7.318;2022-09-09T05:53:36;8.83;;;1.60;;
3916;SDS011;1973;50.518;7.318;2022-09-09T05:56:04;3.27;;;1.53;;
3916;SDS011;1973;50.518;7.318;2022-09-09T05:58:32;5.63;;;1.57;;
3916;SDS011;1973;50.518;7.318;2022-09-09T06:01:22;4.30;;;1.50;;
3916;SDS011;1973;50.518;7.318;2022-09-09T06:03:48;5.30;;;2.00;;
3916;SDS011;1973;50.518;7.318;2022-09-09T06:06:17;9.17;;;1.70;;
3916;SDS011;1973;50.518;7.318;2022-09-09T06:08:52;5.17;;;1.63;;
3916;SDS011;1973;50.518;7.318;2022-09-09T06:11:24;5.07;;;1.80;;
3916;SDS011;1973;50.518;7.318;2022-09-09T06:13:52;6.57;;;1.60;;
3916;SDS011;1973;50.518;7.318;2022-09-09T06:16:21;7.10;;;1.90;;
3916;SDS011;1973;50.518;7.318;2022-09-09T06:18:53;4.73;;;1.53;;
3916;SDS011;1973;50.518;7.318;2022-09-09T06:21:22;4.90;;;1.73;;
3916;SDS011;1973;50.518;7.318;2022-09-09T06:23:53;4.83;;;1.53;;
3916;SDS011;1973;50.518;7.318;2022-09-09T06:26:26;4.53;;;1.60;;
3916;SDS011;1973;50.518;7.318;2022-09-09T06:28:54;3.70;;;1.90;;
3916;SDS011;1973;50.518;7.318;2022-09-09T06:31:22;5.20;;;2.07;;
3916;SDS011;1973;50.518;7.318;2022-09-09T06:33:55;5.60;;;1.50;;
3916;SDS011;1973;50.518;7.318;2022-09-09T06:36:32;3.80;;;1.50;;
3916;SDS011;1973;50.518;7.318;2022-09-09T06:39:04;5.80;;;2.03;;
3916;SDS011;1973;50.518;7.318;2022-09-09T06:41:34;6.60;;;1.63;;
3916;SDS011;1973;50.518;7.318;2022-09-09T06:44:01;4.63;;;1.70;;
3916;SDS011;1973;50.518;7.318;2022-09-09T06:46:28;3.00;;;1.50;;
3916;SDS011;1973;50.518;7.318;2022-09-09T06:48:58;6.93;;;2.20;;
3916;SDS011;1973;50.518;7.318;2022-09-09T06:51:27;9.30;;;1.73;;
3916;SDS011;1973;50.518;7.318;2022-09-09T06:53:58;4.93;;;1.60;;
3916;SDS011;1973;50.518;7.318;2022-09-09T06:56:26;8.03;;;2.93;;
3916;SDS011;1973;50.518;7.318;2022-09-09T06:59:02;5.17;;;2.10;;
3916;SDS011;1973;50.518;7.318;2022-09-09T07:01:34;4.10;;;1.50;;
3916;SDS011;1973;50.518;7.318;2022-09-09T07:04:03;7.13;;;2.23;;
3916;SDS011;1973;50.518;7.318;2022-09-09T07:06:34;8.27;;;2.23;;
3916;SDS011;1973;50.518;7.318;2022-09-09T07:09:05;5.97;;;2.50;;
3916;SDS011;1973;50.518;7.318;2022-09-09T07:11:37;5.67;;;2.70;;
3916;SDS011;1973;50.518;7.318;2022-09-09T07:14:05;7.07;;;2.00;;
3916;SDS011;1973;50.518;7.318;2022-09-09T07:16:31;7.30;;;1.93;;
3916;SDS011;1973;50.518;7.318;2022-09-09T07:18:59;4.20;;;1.93;;
3916;SDS011;1973;50.518;7.318;2022-09-09T07:21:26;6.80;;;1.80;;
3916;SDS011;1973;50.518;7.318;2022-09-09T07:23:55;8.53;;;2.03;;
3916;SDS011;1973;50.518;7.318;2022-09-09T07:26:23;6.90;;;2.20;;
3916;SDS011;1973;50.518;7.318;2022-09-09T07:28:51;7.30;;;1.60;;
3916;SDS011;1973;50.518;7.318;2022-09-09T07:31:19;6.77;;;1.90;;
3916;SDS011;1973;50.518;7.318;2022-09-09T07:33:47;3.23;;;1.40;;
3916;SDS011;1973;50.518;7.318;2022-09-09T07:36:15;7.00;;;1.70;;
3916;SDS011;1973;50.518;7.318;2022-09-09T07:38:42;4.50;;;1.90;;
3916;SDS011;1973;50.518;7.318;2022-09-09T07:41:14;6.93;;;2.00;;
3916;SDS011;1973;50.518;7.318;2022-09-09T07:43:44;8.10;;;2.50;;
3916;SDS011;1973;50.518;7.318;2022-09-09T07:46:12;5.80;;;1.80;;
3916;SDS011;1973;50.518;7.318;2022-09-09T07:48:43;3.80;;;1.97;;
3916;SDS011;1973;50.518;7.318;2022-09-09T07:51:12;6.80;;;2.30;;
3916;SDS011;1973;50.518;7.318;2022-09-09T07:53:44;6.33;;;1.73;;
3916;SDS011;1973;50.518;7.318;2022-09-09T07:56:13;7.03;;;1.77;;
3916;SDS011;1973;50.518;7.318;2022-09-09T07:58:44;4.90;;;1.90;;
3916;SDS011;1973;50.518;7.318;2022-09-09T08:01:16;5.10;;;1.70;;
3916;SDS011;1973;50.518;7.318;2022-09-09T08:03:45;6.90;;;2.70;;
3916;SDS011;1973;50.518;7.318;2022-09-09T08:06:13;9.13;;;3.60;;
3916;SDS011;1973;50.518;7.318;2022-09-09T08:08:40;5.00;;;2.67;;
3916;SDS011;1973;50.518;7.318;2022-09-09T08:11:10;11.23;;;2.50;;
3916;SDS011;1973;50.518;7.318;2022-09-09T08:13:38;6.10;;;1.83;;
3916;SDS011;1973;50.518;7.318;2022-09-09T08:16:06;7.33;;;1.60;;
3916;SDS011;1973;50.518;7.318;2022-09-09T08:18:34;10.47;;;1.90;;
3916;SDS011;1973;50.518;7.318;2022-09-09T08:21:08;3.70;;;1.47;;
3916;SDS011;1973;50.518;7.318;2022-09-09T08:23:41;8.70;;;1.87;;
3916;SDS011;1973;50.518;7.318;2022-09-09T08:26:12;3.97;;;1.13;;
3916;SDS011;1973;50.518;7.318;2022-09-09T08:28:41;5.17;;;1.60;;
3916;SDS011;1973;50.518;7.318;2022-09-09T08:31:09;3.77;;;1.50;;
3916;SDS011;1973;50.518;7.318;2022-09-09T08:33:38;7.93;;;1.47;;
3916;SDS011;1973;50.518;7.318;2022-09-09T08:36:05;3.63;;;1.40;;
3916;SDS011;1973;50.518;7.318;2022-09-09T08:38:33;6.37;;;1.73;;
3916;SDS011;1973;50.518;7.318;2022-09-09T08:52:21;5.27;;;1.50;;
3916;SDS011;1973;50.518;7.318;2022-09-09T08:54:51;5.80;;;1.83;;
3916;SDS011;1973;50.518;7.318;2022-09-09T08:57:26;3.43;;;1.20;;
3916;SDS011;1973;50.518;7.318;2022-09-09T08:59:54;3.03;;;1.30;;
3916;SDS011;1973;50.518;7.318;2022-09-09T09:02:27;4.53;;;1.40;;
3916;SDS011;1973;50.518;7.318;2022-09-09T09:07:51;3.07;;;1.10;;
3916;SDS011;1973;50.518;7.318;2022-09-09T09:10:39;3.30;;;1.37;;
3916;SDS011;1973;50.518;7.318;2022-09-09T09:13:21;6.20;;;1.63;;
3916;SDS011;1973;50.518;7.318;2022-09-09T09:15:58;6.23;;;1.53;;
3916;SDS011;1973;50.518;7.318;2022-09-09T09:18:32;4.93;;;1.43;;
3916;SDS011;1973;50.518;7.318;2022-09-09T09:23:57;4.80;;;1.37;;
3916;SDS011;1973;50.518;7.318;2022-09-09T09:26:29;4.60;;;1.37;;
3916;SDS011;1973;50.518;7.318;2022-09-09T09:28:59;4.30;;;1.30;;
3916;SDS011;1973;50.518;7.318;2022-09-09T09:31:34;3.40;;;1.40;;
3916;SDS011;1973;50.518;7.318;2022-09-09T09:34:00;10.70;;;1.80;;
3916;SDS011;1973;50.518;7.318;2022-09-09T09:36:37;4.83;;;1.10;;
3916;SDS011;1973;50.518;7.318;2022-09-09T09:39:07;5.90;;;1.23;;
3916;SDS011;1973;50.518;7.318;2022-09-09T09:41:55;4.90;;;1.70;;
3916;SDS011;1973;50.518;7.318;2022-09-09T09:44:27;6.53;;;2.00;;
3916;SDS011;1973;50.518;7.318;2022-09-09T09:47:08;5.67;;;1.23;;
3916;SDS011;1973;50.518;7.318;2022-09-09T09:52:22;6.80;;;1.43;;
3916;SDS011;1973;50.518;7.318;2022-09-09T09:54:51;4.77;;;1.70;;
3916;SDS011;1973;50.518;7.318;2022-09-09T09:57:22;4.03;;;1.50;;
3916;SDS011;1973;50.518;7.318;2022-09-09T10:02:44;4.70;;;1.83;;
3916;SDS011;1973;50.518;7.318;2022-09-09T10:05:16;4.40;;;1.30;;
3916;SDS011;1973;50.518;7.318;2022-09-09T10:07:45;7.33;;;1.70;;
3916;SDS011;1973;50.518;7.318;2022-09-09T10:10:23;4.93;;;1.40;;
3916;SDS011;1973;50.518;7.318;2022-09-09T10:15:44;5.00;;;2.00;;
3916;SDS011;1973;50.518;7.318;2022-09-09T10:18:24;7.37;;;1.60;;
3916;SDS011;1973;50.518;7.318;2022-09-09T10:30:04;7.63;;;2.30;;
3916;SDS011;1973;50.518;7.318;2022-09-09T10:35:40;3.60;;;1.50;;
3916;SDS011;1973;50.518;7.318;2022-09-09T10:38:13;8.80;;;1.67;;
3916;SDS011;1973;50.518;7.318;2022-09-09T10:49:25;2.20;;;1.13;;
3916;SDS011;1973;50.518;7.318;2022-09-09T10:52:14;7.40;;;1.60;;
3916;SDS011;1973;50.518;7.318;2022-09-09T10:54:49;5.00;;;1.60;;
3916;SDS011;1973;50.518;7.318;2022-09-09T10:57:27;5.57;;;1.50;;
3916;SDS011;1973;50.518;7.318;2022-09-09T11:00:05;2.50;;;1.10;;
3916;SDS011;1973;50.518;7.318;2022-09-09T11:02:39;3.00;;;1.47;;
3916;SDS011;1973;50.518;7.318;2022-09-09T11:07:41;7.03;;;1.70;;
3916;SDS011;1973;50.518;7.318;2022-09-09T11:12:53;6.33;;;1.47;;
3916;SDS011;1973;50.518;7.318;2022-09-09T11:15:29;3.27;;;1.30;;
3916;SDS011;1973;50.518;7.318;2022-09-09T11:18:03;6.77;;;1.70;;
3916;SDS011;1973;50.518;7.318;2022-09-09T11:20:32;2.73;;;1.00;;
3916;SDS011;1973;50.518;7.318;2022-09-09T11:23:05;4.40;;;1.17;;
3916;SDS011;1973;50.518;7.318;2022-09-09T11:25:57;4.03;;;1.30;;
3916;SDS011;1973;50.518;7.318;2022-09-09T11:28:39;5.07;;;1.03;;
3916;SDS011;1973;50.518;7.318;2022-09-09T11:31:21;3.43;;;1.23;;
3916;SDS011;1973;50.518;7.318;2022-09-09T11:34:12;4.47;;;1.30;;
3916;SDS011;1973;50.518;7.318;2022-09-09T11:42:40;2.50;;;1.10;;
3916;SDS011;1973;50.518;7.318;2022-09-09T11:45:09;3.67;;;1.00;;
3916;SDS011;1973;50.518;7.318;2022-09-09T11:47:53;4.00;;;1.17;;
3916;SDS011;1973;50.518;7.318;2022-09-09T11:52:48;4.63;;;1.40;;
3916;SDS011;1973;50.518;7.318;2022-09-09T11:55:25;2.97;;;0.90;;
3916;SDS011;1973;50.518;7.318;2022-09-09T12:00:44;4.43;;;1.27;;
3916;SDS011;1973;50.518;7.318;2022-09-09T12:08:48;3.30;;;0.90;;
3916;SDS011;1973;50.518;7.318;2022-09-09T12:11:24;6.13;;;1.30;;
3916;SDS011;1973;50.518;7.318;2022-09-09T12:13:52;2.00;;;0.87;;
3916;SDS011;1973;50.518;7.318;2022-09-09T12:16:33;5.60;;;0.87;;
3916;SDS011;1973;50.518;7.318;2022-09-09T12:19:24;3.30;;;1.10;;
3916;SDS011;1973;50.518;7.318;2022-09-09T12:21:59;2.53;;;0.90;;
3916;SDS011;1973;50.518;7.318;2022-09-09T12:24:37;1.70;;;0.90;;
3916;SDS011;1973;50.518;7.318;2022-09-09T12:28:15;4.67;;;1.00;;
3916;SDS011;1973;50.518;7.318;2022-09-09T12:30:16;2.77;;;1.00;;
3916;SDS011;1973;50.518;7.318;2022-09-09T12:32:43;4.13;;;1.00;;
3916;SDS011;1973;50.518;7.318;2022-09-09T12:35:22;2.50;;;1.13;;
3916;SDS011;1973;50.518;7.318;2022-09-09T12:37:55;5.33;;;1.00;;
3916;SDS011;1973;50.518;7.318;2022-09-09T12:40:27;2.63;;;1.17;;
3916;SDS011;1973;50.518;7.318;2022-09-09T12:43:01;3.60;;;0.87;;
3916;SDS011;1973;50.518;7.318;2022-09-09T12:45:42;5.23;;;1.70;;
3916;SDS011;1973;50.518;7.318;2022-09-09T12:48:09;2.50;;;0.93;;
3916;SDS011;1973;50.518;7.318;2022-09-09T12:50:38;2.37;;;0.90;;
3916;SDS011;1973;50.518;7.318;2022-09-09T12:53:25;2.77;;;1.20;;
3916;SDS011;1973;50.518;7.318;2022-09-09T12:55:59;4.00;;;1.03;;
3916;SDS011;1973;50.518;7.318;2022-09-09T12:58:28;3.40;;;1.00;;
3916;SDS011;1973;50.518;7.318;2022-09-09T13:01:01;2.10;;;0.90;;
3916;SDS011;1973;50.518;7.318;2022-09-09T13:03:41;2.80;;;0.90;;
3916;SDS011;1973;50.518;7.318;2022-09-09T13:06:21;3.80;;;1.27;;
3916;SDS011;1973;50.518;7.318;2022-09-09T13:08:55;6.30;;;1.47;;
3916;SDS011;1973;50.518;7.318;2022-09-09T13:11:26;4.27;;;1.10;;
3916;SDS011;1973;50.518;7.318;2022-09-09T13:14:05;1.97;;;1.30;;
3916;SDS011;1973;50.518;7.318;2022-09-09T13:16:33;5.00;;;1.40;;
3916;SDS011;1973;50.518;7.318;2022-09-09T13:19:08;3.03;;;1.10;;
3916;SDS011;1973;50.518;7.318;2022-09-09T13:21:39;4.60;;;0.90;;
3916;SDS011;1973;50.518;7.318;2022-09-09T13:24:07;3.37;;;1.00;;
3916;SDS011;1973;50.518;7.318;2022-09-09T13:27:26;1.90;;;0.80;;
3916;SDS011;1973;50.518;7.318;2022-09-09T13:29:55;4.30;;;1.07;;
3916;SDS011;1973;50.518;7.318;2022-09-09T13:32:23;2.70;;;1.00;;
3916;SDS011;1973;50.518;7.318;2022-09-09T13:34:56;4.17;;;1.00;;
3916;SDS011;1973;50.518;7.318;2022-09-09T13:37:34;2.70;;;1.20;;
3916;SDS011;1973;50.518;7.318;2022-09-09T13:40:03;3.77;;;0.90;;
3916;SDS011;1973;50.518;7.318;2022-09-09T13:42:33;2.47;;;0.80;;
3916;SDS011;1973;50.518;7.318;2022-09-09T13:45:04;2.07;;;0.90;;
3916;SDS011;1973;50.518;7.318;2022-09-09T13:47:32;3.23;;;0.97;;
3916;SDS011;1973;50.518;7.318;2022-09-09T13:50:19;6.67;;;1.00;;
3916;SDS011;1973;50.518;7.318;2022-09-09T13:52:51;3.50;;;1.93;;
3916;SDS011;1973;50.518;7.318;2022-09-09T13:55:19;2.60;;;1.30;;
3916;SDS011;1973;50.518;7.318;2022-09-09T13:57:55;2.63;;;1.00;;
3916;SDS011;1973;50.518;7.318;2022-09-09T14:00:23;2.80;;;0.90;;
3916;SDS011;1973;50.518;7.318;2022-09-09T14:02:50;4.80;;;1.40;;
3916;SDS011;1973;50.518;7.318;2022-09-09T14:05:17;2.90;;;1.30;;
3916;SDS011;1973;50.518;7.318;2022-09-09T14:07:44;3.37;;;1.20;;
3916;SDS011;1973;50.518;7.318;2022-09-09T14:10:17;2.70;;;0.87;;
3916;SDS011;1973;50.518;7.318;2022-09-09T14:12:44;3.40;;;1.03;;
3916;SDS011;1973;50.518;7.318;2022-09-09T14:15:11;1.73;;;0.97;;
3916;SDS011;1973;50.518;7.318;2022-09-09T14:17:38;3.27;;;1.20;;
3916;SDS011;1973;50.518;7.318;2022-09-09T14:20:05;3.70;;;1.60;;
3916;SDS011;1973;50.518;7.318;2022-09-09T14:22:35;2.60;;;0.90;;
3916;SDS011;1973;50.518;7.318;2022-09-09T14:25:02;4.43;;;1.40;;
3916;SDS011;1973;50.518;7.318;2022-09-09T14:27:29;3.40;;;1.00;;
3916;SDS011;1973;50.518;7.318;2022-09-09T14:29:56;3.67;;;1.00;;
3916;SDS011;1973;50.518;7.318;2022-09-09T14:32:23;8.20;;;1.17;;
3916;SDS011;1973;50.518;7.318;2022-09-09T14:34:50;2.23;;;0.80;;
3916;SDS011;1973;50.518;7.318;2022-09-09T14:37:17;3.53;;;1.73;;
3916;SDS011;1973;50.518;7.318;2022-09-09T14:39:44;1.33;;;0.90;;
3916;SDS011;1973;50.518;7.318;2022-09-09T14:42:10;3.80;;;1.17;;
3916;SDS011;1973;50.518;7.318;2022-09-09T14:44:37;3.30;;;0.73;;
3916;SDS011;1973;50.518;7.318;2022-09-09T14:47:07;1.60;;;0.70;;
3916;SDS011;1973;50.518;7.318;2022-09-09T14:49:34;1.43;;;0.90;;
3916;SDS011;1973;50.518;7.318;2022-09-09T14:52:01;3.23;;;1.27;;
3916;SDS011;1973;50.518;7.318;2022-09-09T14:54:28;2.60;;;1.17;;
3916;SDS011;1973;50.518;7.318;2022-09-09T14:56:55;1.53;;;0.90;;
3916;SDS011;1973;50.518;7.318;2022-09-09T14:59:23;2.23;;;0.70;;
3916;SDS011;1973;50.518;7.318;2022-09-09T15:01:49;1.43;;;0.60;;
3916;SDS011;1973;50.518;7.318;2022-09-09T15:04:16;2.93;;;0.80;;
3916;SDS011;1973;50.518;7.318;2022-09-09T15:06:42;3.20;;;0.80;;
3916;SDS011;1973;50.518;7.318;2022-09-09T15:09:13;1.57;;;0.77;;
3916;SDS011;1973;50.518;7.318;2022-09-09T15:11:39;2.90;;;1.23;;
3916;SDS011;1973;50.518;7.318;2022-09-09T15:14:06;1.20;;;0.60;;
3916;SDS011;1973;50.518;7.318;2022-09-09T15:16:35;1.03;;;0.60;;
3916;SDS011;1973;50.518;7.318;2022-09-09T15:19:02;1.13;;;0.67;;
3916;SDS011;1973;50.518;7.318;2022-09-09T15:21:30;2.10;;;0.90;;
3916;SDS011;1973;50.518;7.318;2022-09-09T15:23:58;2.37;;;0.97;;
3916;SDS011;1973;50.518;7.318;2022-09-09T15:26:25;2.17;;;0.90;;
3916;SDS011;1973;50.518;7.318;2022-09-09T15:28:53;1.30;;;0.70;;
3916;SDS011;1973;50.518;7.318;2022-09-09T15:31:24;1.90;;;0.63;;
3916;SDS011;1973;50.518;7.318;2022-09-09T15:34:00;2.80;;;0.80;;
3916;SDS011;1973;50.518;7.318;2022-09-09T15:36:41;2.60;;;1.00;;
3916;SDS011;1973;50.518;7.318;2022-09-09T15:39:13;1.30;;;0.83;;
3916;SDS011;1973;50.518;7.318;2022-09-09T15:41:44;4.37;;;1.00;;
3916;SDS011;1973;50.518;7.318;2022-09-09T15:44:12;1.40;;;1.00;;
3916;SDS011;1973;50.518;7.318;2022-09-09T15:46:41;2.23;;;0.90;;
3916;SDS011;1973;50.518;7.318;2022-09-09T15:49:10;3.27;;;0.77;;
3916;SDS011;1973;50.518;7.318;2022-09-09T15:51:39;2.20;;;0.70;;
3916;SDS011;1973;50.518;7.318;2022-09-09T15:54:14;2.47;;;0.90;;
3916;SDS011;1973;50.518;7.318;2022-09-09T15:56:43;1.87;;;0.83;;
3916;SDS011;1973;50.518;7.318;2022-09-09T15:59:11;1.93;;;1.10;;
3916;SDS011;1973;50.518;7.318;2022-09-09T16:01:38;3.53;;;1.07;;
3916;SDS011;1973;50.518;7.318;2022-09-09T16:04:08;5.10;;;0.90;;
3916;SDS011;1973;50.518;7.318;2022-09-09T16:06:36;7.03;;;1.00;;
3916;SDS011;1973;50.518;7.318;2022-09-09T16:09:03;4.43;;;1.40;;
3916;SDS011;1973;50.518;7.318;2022-09-09T16:11:33;1.90;;;0.90;;
3916;SDS011;1973;50.518;7.318;2022-09-09T16:14:01;2.23;;;0.90;;
3916;SDS011;1973;50.518;7.318;2022-09-09T16:16:30;1.27;;;0.70;;
3916;SDS011;1973;50.518;7.318;2022-09-09T16:18:57;2.30;;;1.10;;
3916;SDS011;1973;50.518;7.318;2022-09-09T16:21:33;5.43;;;1.20;;
3916;SDS011;1973;50.518;7.318;2022-09-09T16:24:03;3.33;;;0.80;;
3916;SDS011;1973;50.518;7.318;2022-09-09T16:26:32;1.50;;;0.93;;
3916;SDS011;1973;50.518;7.318;2022-09-09T16:29:00;2.30;;;0.93;;
3916;SDS011;1973;50.518;7.318;2022-09-09T16:31:28;2.30;;;1.07;;
3916;SDS011;1973;50.518;7.318;2022-09-09T16:33:56;2.70;;;1.37;;
3916;SDS011;1973;50.518;7.318;2022-09-09T16:36:23;3.80;;;1.10;;
3916;SDS011;1973;50.518;7.318;2022-09-09T16:38:55;2.33;;;1.00;;
3916;SDS011;1973;50.518;7.318;2022-09-09T16:41:23;2.30;;;1.17;;
3916;SDS011;1973;50.518;7.318;2022-09-09T16:46:26;5.13;;;1.10;;
3916;SDS011;1973;50.518;7.318;2022-09-09T16:48:55;3.73;;;1.27;;
3916;SDS011;1973;50.518;7.318;2022-09-09T16:51:25;3.33;;;0.90;;
3916;SDS011;1973;50.518;7.318;2022-09-09T16:53:54;6.03;;;1.10;;
3916;SDS011;1973;50.518;7.318;2022-09-09T16:56:22;4.63;;;1.33;;
3916;SDS011;1973;50.518;7.318;2022-09-09T16:58:54;4.13;;;1.70;;
3916;SDS011;1973;50.518;7.318;2022-09-09T17:01:25;2.00;;;1.10;;
3916;SDS011;1973;50.518;7.318;2022-09-09T17:03:53;4.10;;;1.30;;
3916;SDS011;1973;50.518;7.318;2022-09-09T17:06:26;3.50;;;1.27;;
3916;SDS011;1973;50.518;7.318;2022-09-09T17:09:00;1.83;;;0.90;;
3916;SDS011;1973;50.518;7.318;2022-09-09T17:11:29;3.00;;;1.23;;
3916;SDS011;1973;50.518;7.318;2022-09-09T17:13:56;3.97;;;1.10;;
3916;SDS011;1973;50.518;7.318;2022-09-09T17:16:25;6.97;;;1.23;;
3916;SDS011;1973;50.518;7.318;2022-09-09T17:18:56;3.93;;;1.10;;
3916;SDS011;1973;50.518;7.318;2022-09-09T17:21:25;3.20;;;1.30;;
3916;SDS011;1973;50.518;7.318;2022-09-09T17:23:52;4.30;;;1.63;;
3916;SDS011;1973;50.518;7.318;2022-09-09T17:26:20;5.37;;;1.67;;